Time;durP1;ratioP1;P1;durP2;ratioP2;P2;SDS_P1;SDS_P2;PMS_P1;PMS_P2;Temp;Humidity;BMP_temperature;BMP_pressure;BME280_temperature;BME280_humidity;BME280_pressure;Samples;Min_cycle;Max_cycle;Signal;HPM_P1;HPM_P2
2021/04/07 00:03:52;;;;;;;2.15;0.98;;;17.60;54.10;;;;;;10492510;28;20107;-63
2021/04/07 00:08:52;;;;;;;2.75;1.25;;;17.60;54.20;;;;;;10475757;28;20036;-64
2021/04/07 00:13:53;;;;;;;2.67;0.77;;;17.60;54.20;;;;;;10481997;28;20070;-63
2021/04/07 00:18:54;;;;;;;2.22;1.13;;;17.60;54.20;;;;;;10453405;28;20029;-63
2021/04/07 00:23:54;;;;;;;6.10;1.20;;;17.60;54.10;;;;;;10478058;28;20032;-63
2021/04/07 00:28:55;;;;;;;1.63;0.93;;;17.60;54.00;;;;;;10478702;28;20111;-63
2021/04/07 00:33:56;;;;;;;1.60;0.98;;;17.60;54.00;;;;;;10498989;28;20119;-63
2021/04/07 00:38:56;;;;;;;2.60;0.95;;;17.60;54.00;;;;;;10498638;28;20028;-63
2021/04/07 00:44:04;;;;;;;2.70;1.17;;;17.60;54.00;;;;;;10497382;28;20126;-63
2021/04/07 00:49:04;;;;;;;2.08;0.90;;;17.70;53.90;;;;;;10480893;28;20532;-63
2021/04/07 00:54:05;;;;;;;1.65;0.57;;;17.60;53.90;;;;;;10479925;28;20070;-63
2021/04/07 00:59:06;;;;;;;1.70;0.90;;;17.60;54.00;;;;;;10498069;28;20034;-64
2021/04/07 01:04:08;;;;;;;1.42;0.60;;;17.60;54.00;;;;;;10479702;28;20028;-63
2021/04/07 01:09:10;;;;;;;2.40;0.90;;;17.60;54.00;;;;;;10479999;28;20474;-63
2021/04/07 01:14:12;;;;;;;2.60;0.95;;;17.60;53.90;;;;;;10474635;28;20119;-63
2021/04/07 01:19:13;;;;;;;1.70;0.68;;;17.60;53.90;;;;;;10479762;28;20389;-63
2021/04/07 01:24:14;;;;;;;1.63;0.65;;;17.60;53.90;;;;;;10497395;28;20076;-63
2021/04/07 01:29:15;;;;;;;1.65;1.13;;;17.70;53.90;;;;;;10485280;28;20472;-63
2021/04/07 01:34:30;;;;;;;1.08;0.45;;;17.70;53.80;;;;;;10478994;28;20048;-63
2021/04/07 01:39:31;;;;;;;1.77;0.80;;;17.70;53.80;;;;;;10493307;28;20042;-63
2021/04/07 01:44:33;;;;;;;1.17;0.55;;;17.60;53.80;;;;;;10477512;28;20507;-60
2021/04/07 01:49:34;;;;;;;1.40;0.70;;;17.70;53.70;;;;;;10479469;28;20028;-61
2021/04/07 01:54:35;;;;;;;1.00;0.60;;;17.70;53.70;;;;;;10478946;28;20040;-60
2021/04/07 01:59:36;;;;;;;1.17;0.60;;;17.60;53.70;;;;;;10504447;28;20024;-60
2021/04/07 02:04:36;;;;;;;1.10;0.60;;;17.60;53.70;;;;;;10487185;28;20036;-61
2021/04/07 02:09:37;;;;;;;1.20;0.60;;;17.60;53.80;;;;;;10483269;28;20093;-61
2021/04/07 02:14:38;;;;;;;1.58;0.73;;;17.60;53.80;;;;;;10480761;28;20035;-61
2021/04/07 02:19:39;;;;;;;1.92;0.63;;;17.60;53.80;;;;;;10494884;28;20038;-61
2021/04/07 02:24:46;;;;;;;1.40;0.60;;;17.60;53.80;;;;;;10473272;28;20043;-60
2021/04/07 02:29:54;;;;;;;2.58;0.70;;;17.60;53.80;;;;;;10486345;28;20114;-60
2021/04/07 02:34:55;;;;;;;1.50;0.50;;;17.60;53.80;;;;;;10485860;28;20398;-61
2021/04/07 02:39:58;;;;;;;1.65;0.60;;;17.60;53.80;;;;;;10478090;28;20039;-60
2021/04/07 02:44:58;;;;;;;0.98;0.40;;;17.60;53.80;;;;;;10480729;28;20153;-60
2021/04/07 02:49:59;;;;;;;1.17;0.43;;;17.60;53.80;;;;;;10485667;28;20119;-60
2021/04/07 02:55:00;;;;;;;1.15;0.45;;;17.60;53.80;;;;;;10485079;28;20043;-61
2021/04/07 03:00:01;;;;;;;1.38;0.57;;;17.60;53.80;;;;;;10484990;28;20123;-60
2021/04/07 03:05:03;;;;;;;0.60;0.30;;;17.60;53.80;;;;;;10486804;28;20024;-60
2021/04/07 03:10:05;;;;;;;1.15;0.52;;;17.60;53.70;;;;;;10484042;28;20035;-61
2021/04/07 03:15:09;;;;;;;1.30;0.50;;;17.60;53.70;;;;;;10457387;28;20028;-61
2021/04/07 03:20:10;;;;;;;1.58;0.68;;;17.60;53.80;;;;;;10484332;28;20032;-60
2021/04/07 03:25:12;;;;;;;0.75;0.55;;;17.60;53.70;;;;;;10483433;28;20078;-60
2021/04/07 03:30:13;;;;;;;0.80;0.43;;;17.60;53.70;;;;;;10501518;28;20028;-60
2021/04/07 03:35:14;;;;;;;1.25;0.40;;;17.60;53.60;;;;;;10483179;28;20053;-61
2021/04/07 03:40:15;;;;;;;0.70;0.50;;;17.60;53.60;;;;;;10483232;28;20039;-60
2021/04/07 03:45:15;;;;;;;2.65;0.90;;;17.60;53.60;;;;;;10480326;28;20540;-60
2021/04/07 03:50:16;;;;;;;1.50;0.68;;;17.60;53.70;;;;;;10500540;28;20084;-60
2021/04/07 03:55:17;;;;;;;1.27;0.55;;;17.60;53.70;;;;;;10500297;28;20043;-60
2021/04/07 04:00:19;;;;;;;1.65;0.73;;;17.60;53.70;;;;;;10500328;28;20023;-61
2021/04/07 04:05:20;;;;;;;0.52;0.30;;;17.60;53.60;;;;;;10482179;28;20610;-60
2021/04/07 04:10:21;;;;;;;0.75;0.40;;;17.60;53.60;;;;;;10499930;28;20024;-61
2021/04/07 04:15:22;;;;;;;1.42;0.65;;;17.60;53.60;;;;;;10481798;28;20040;-61
2021/04/07 04:20:22;;;;;;;1.52;0.60;;;17.60;53.60;;;;;;10481841;28;20028;-60
2021/04/07 04:25:23;;;;;;;1.48;0.50;;;17.60;53.60;;;;;;10481637;28;20083;-61
2021/04/07 04:30:26;;;;;;;0.40;0.38;;;17.60;53.60;;;;;;10499049;28;20029;-60
2021/04/07 04:35:28;;;;;;;1.20;0.52;;;17.60;53.60;;;;;;10512155;28;20049;-61
2021/04/07 04:40:28;;;;;;;0.98;0.40;;;17.60;53.60;;;;;;10480887;28;20033;-60
2021/04/07 04:45:29;;;;;;;1.25;0.35;;;17.50;53.60;;;;;;10494261;28;20032;-61
2021/04/07 04:50:30;;;;;;;0.73;0.30;;;17.60;53.60;;;;;;10480763;28;20032;-60
2021/04/07 04:55:31;;;;;;;0.43;0.40;;;17.60;53.50;;;;;;10481492;28;20488;-61
2021/04/07 05:00:32;;;;;;;1.15;0.50;;;17.60;53.40;;;;;;10491760;28;20028;-60
2021/04/07 05:05:32;;;;;;;1.42;0.55;;;17.70;53.30;;;;;;10479149;28;20033;-61
2021/04/07 05:10:34;;;;;;;0.45;0.20;;;17.60;53.30;;;;;;10462733;28;20097;-61
2021/04/07 05:15:35;;;;;;;0.50;0.20;;;17.60;53.30;;;;;;10462390;28;20369;-61
2021/04/07 05:20:36;;;;;;;1.15;0.40;;;17.60;53.30;;;;;;10496658;28;20056;-61
2021/04/07 05:25:37;;;;;;;1.05;0.40;;;17.60;53.30;;;;;;10496319;28;20051;-61
2021/04/07 05:36:02;;;;;;;0.45;0.32;;;17.60;53.20;;;;;;10493753;28;20048;-60
2021/04/07 05:41:04;;;;;;;3.75;0.77;;;17.60;53.20;;;;;;10494815;28;20050;-60
2021/04/07 05:46:06;;;;;;;3.33;0.47;;;17.50;53.10;;;;;;10493271;28;20060;-61
2021/04/07 05:51:07;;;;;;;5.15;1.10;;;17.60;54.30;;;;;;10490735;28;20130;-60
2021/04/07 05:56:08;;;;;;;6.40;0.60;;;17.60;54.80;;;;;;10492157;28;20039;-61
2021/04/07 06:01:09;;;;;;;6.55;0.75;;;17.70;54.80;;;;;;10475650;28;20174;-65
2021/04/07 06:06:10;;;;;;;3.00;0.52;;;17.70;54.80;;;;;;10473124;28;20025;-62
2021/04/07 06:11:11;;;;;;;6.22;0.77;;;17.70;55.30;;;;;;10496747;28;20063;-62
2021/04/07 06:16:13;;;;;;;11.95;0.85;;;17.70;55.30;;;;;;10495503;28;20105;-61
2021/04/07 06:21:14;;;;;;;5.88;0.90;;;17.70;55.10;;;;;;10492475;28;20485;-62
2021/04/07 06:26:15;;;;;;;6.63;0.75;;;17.70;55.30;;;;;;10473399;28;20032;-64
2021/04/07 06:31:16;;;;;;;11.60;1.50;;;17.70;54.40;;;;;;10490286;28;20426;-63
2021/04/07 06:36:16;;;;;;;6.07;1.00;;;17.70;53.90;;;;;;10487702;28;20381;-64
2021/04/07 06:41:19;;;;;;;4.18;0.75;;;17.60;53.30;;;;;;10493654;28;20058;-65
2021/04/07 06:46:23;;;;;;;4.57;1.35;;;17.60;53.30;;;;;;10484032;28;20108;-65
2021/04/07 06:51:24;;;;;;;14.68;1.30;;;17.70;53.40;;;;;;10502956;28;20033;-68
2021/04/07 06:56:25;;;;;;;3.95;0.80;;;17.70;53.90;;;;;;10467630;28;20029;-66
2021/04/07 07:01:26;;;;;;;5.93;0.82;;;17.60;54.90;;;;;;10501663;28;20140;-63
2021/04/07 07:06:28;;;;;;;7.93;1.73;;;17.60;54.60;;;;;;10501400;28;20039;-67
2021/04/07 07:11:29;;;;;;;7.32;1.80;;;17.60;54.10;;;;;;10483029;28;20431;-69
2021/04/07 07:16:29;;;;;;;10.32;1.40;;;17.50;54.50;;;;;;10483594;28;20048;-65
2021/04/07 07:21:30;;;;;;;6.97;1.10;;;17.60;55.30;;;;;;10501413;28;20036;-66
2021/04/07 07:26:40;;;;;;;8.50;1.17;;;17.60;55.30;;;;;;10498470;28;20431;-65
2021/04/07 07:31:41;;;;;;;10.20;1.52;;;17.60;55.30;;;;;;10483184;28;20051;-65
2021/04/07 07:36:42;;;;;;;4.90;1.23;;;17.50;55.60;;;;;;10500972;28;20072;-68
2021/04/07 07:41:43;;;;;;;5.80;1.50;;;17.50;55.60;;;;;;10500811;28;20138;-68
2021/04/07 07:46:46;;;;;;;5.82;1.42;;;17.50;55.40;;;;;;10478685;28;20037;-67
2021/04/07 07:51:49;;;;;;;5.03;1.05;;;17.50;55.40;;;;;;10483173;28;20028;-67
2021/04/07 07:56:53;;;;;;;8.73;1.40;;;17.50;55.30;;;;;;10480364;28;20376;-67
2021/04/07 08:01:54;;;;;;;6.38;1.77;;;17.50;55.40;;;;;;10488359;28;20032;-67
2021/04/07 08:06:57;;;;;;;4.63;1.00;;;17.50;55.30;;;;;;10499685;28;20082;-67
2021/04/07 08:11:58;;;;;;;5.25;1.13;;;17.40;55.40;;;;;;10481229;28;20025;-66
2021/04/07 08:17:00;;;;;;;6.97;1.30;;;17.40;55.20;;;;;;10481886;28;20036;-66
2021/04/07 08:22:04;;;;;;;6.15;1.02;;;17.40;55.10;;;;;;10481565;28;20036;-64
2021/04/07 08:27:07;;;;;;;7.85;1.65;;;17.40;55.80;;;;;;10476966;28;20162;-62
2021/04/07 08:32:08;;;;;;;9.40;1.67;;;17.30;55.50;;;;;;10479303;28;20085;-61
2021/04/07 08:37:08;;;;;;;12.52;1.95;;;17.40;55.60;;;;;;10480891;28;20075;-61
2021/04/07 08:42:14;;;;;;;19.50;2.58;;;17.40;55.50;;;;;;10498351;28;20068;-65
2021/04/07 08:47:34;;;;;;;17.30;2.00;;;17.40;56.20;;;;;;10510295;28;20086;-62
2021/04/07 08:52:48;;;;;;;12.27;2.33;;;17.40;56.00;;;;;;10476781;28;20036;-60
2021/04/07 08:58:00;;;;;;;15.65;2.60;;;17.40;55.80;;;;;;10497996;28;20036;-70
2021/04/07 09:03:14;;;;;;;19.48;3.60;;;17.30;55.90;;;;;;10479459;28;20032;-63
2021/04/07 09:08:17;;;;;;;20.65;2.67;;;17.20;56.50;;;;;;10496176;28;20025;-64
2021/04/07 09:13:27;;;;;;;19.00;3.13;;;17.20;57.00;;;;;;10497303;28;20124;-63
2021/04/07 09:18:40;;;;;;;31.55;3.50;;;17.20;57.10;;;;;;10497430;28;20480;-62
2021/04/07 09:23:44;;;;;;;30.83;4.35;;;17.20;59.00;;;;;;10496664;28;20135;-62
2021/04/07 09:28:48;;;;;;;32.75;4.55;;;17.20;58.90;;;;;;10477430;28;20028;-60
2021/04/07 09:33:56;;;;;;;16.60;2.65;;;17.20;58.30;;;;;;10478724;28;20044;-65
2021/04/07 09:39:00;;;;;;;17.23;3.30;;;17.20;58.40;;;;;;10475041;28;20052;-62
2021/04/07 09:44:05;;;;;;;26.90;3.10;;;17.20;58.10;;;;;;10496872;28;20480;-62
2021/04/07 09:49:10;;;;;;;20.98;3.90;;;17.20;58.50;;;;;;10479017;28;20026;-65
2021/04/07 09:54:24;;;;;;;28.65;3.47;;;17.20;58.60;;;;;;10496587;28;20407;-64
2021/04/07 09:59:45;;;;;;;31.90;4.25;;;17.20;58.40;;;;;;10492368;28;20033;-63
2021/04/07 10:04:46;;;;;;;34.22;5.47;;;17.10;58.80;;;;;;10496556;28;20452;-62
2021/04/07 10:09:50;;;;;;;22.55;2.90;;;17.10;59.30;;;;;;10461127;28;20145;-57
2021/04/07 10:14:53;;;;;;;48.67;5.70;;;17.10;58.70;;;;;;10496082;28;20543;-60
2021/04/07 10:19:55;;;;;;;17.85;3.97;;;17.10;59.30;;;;;;10485275;28;20369;-60
2021/04/07 10:25:12;;;;;;;20.40;3.78;;;17.10;60.10;;;;;;10503715;28;20032;-61
2021/04/07 10:30:14;;;;;;;19.55;3.50;;;17.10;60.40;;;;;;10478684;28;20399;-62
2021/04/07 10:35:26;;;;;;;18.10;3.28;;;17.10;60.60;;;;;;10472198;28;20087;-61
2021/04/07 10:40:30;;;;;;;21.08;4.20;;;17.10;60.70;;;;;;10486232;28;20036;-58
2021/04/07 10:45:31;;;;;;;19.33;2.83;;;17.10;60.70;;;;;;10502302;28;20036;-59
2021/04/07 10:50:36;;;;;;;14.85;3.30;;;17.10;60.30;;;;;;10502377;28;20036;-59
2021/04/07 10:55:37;;;;;;;9.80;2.17;;;17.10;60.50;;;;;;10474580;28;20107;-60
2021/04/07 11:00:40;;;;;;;35.28;2.88;;;17.10;59.10;;;;;;10502354;28;20029;-61
2021/04/07 11:05:44;;;;;;;19.17;3.95;;;17.20;59.20;;;;;;10502380;28;20059;-61
2021/04/07 11:10:51;;;;;;;17.45;2.40;;;17.20;58.90;;;;;;10502368;28;20468;-59
2021/04/07 11:15:52;;;;;;;18.73;3.88;;;17.10;59.40;;;;;;10501811;28;20366;-59
2021/04/07 11:20:53;;;;;;;10.40;2.53;;;17.10;59.30;;;;;;10483070;28;20036;-59
2021/04/07 11:25:54;;;;;;;11.25;2.35;;;17.10;59.20;;;;;;10474780;28;20451;-56
2021/04/07 11:31:07;;;;;;;18.23;3.13;;;17.00;59.20;;;;;;10499935;28;20020;-61
2021/04/07 11:36:21;;;;;;;12.57;2.33;;;17.00;59.10;;;;;;10500932;28;20057;-61
2021/04/07 11:46:42;;;;;;;19.40;3.70;;;17.00;59.20;;;;;;10485503;28;20492;-61
2021/04/07 11:51:43;;;;;;;13.50;2.47;;;17.00;59.10;;;;;;10500502;28;20063;-62
2021/04/07 11:56:46;;;;;;;13.73;3.05;;;17.10;59.00;;;;;;10499710;28;20044;-62
2021/04/07 12:01:49;;;;;;;18.08;2.83;;;17.10;59.70;;;;;;10499884;28;20032;-63
2021/04/07 12:06:50;;;;;;;12.90;2.47;;;17.20;59.90;;;;;;10500034;28;20072;-58
2021/04/07 12:11:52;;;;;;;27.05;8.02;;;17.10;59.00;;;;;;10508929;28;20017;-58
2021/04/07 12:16:52;;;;;;;6.30;2.65;;;17.10;59.30;;;;;;10477480;28;20047;-58
2021/04/07 12:21:53;;;;;;;11.73;3.47;;;17.10;57.30;;;;;;10479636;28;20123;-59
2021/04/07 12:26:55;;;;;;;6.43;2.33;;;17.20;56.40;;;;;;10479942;28;20025;-59
2021/04/07 12:31:55;;;;;;;9.23;2.53;;;17.10;55.40;;;;;;10498487;28;20028;-56
2021/04/07 12:37:00;;;;;;;14.10;3.05;;;17.20;54.70;;;;;;10497128;28;20067;-62
2021/04/07 12:42:01;;;;;;;17.65;3.22;;;17.20;54.10;;;;;;10471498;28;20043;-62
2021/04/07 12:47:02;;;;;;;14.18;2.67;;;17.30;54.30;;;;;;10478454;28;20060;-62
2021/04/07 12:52:03;;;;;;;15.25;3.00;;;17.40;54.40;;;;;;10497148;28;20044;-62
2021/04/07 12:57:04;;;;;;;20.42;3.03;;;17.40;54.60;;;;;;10497109;28;20063;-61
2021/04/07 13:02:05;;;;;;;19.08;2.33;;;17.40;54.70;;;;;;10496345;28;20097;-61
2021/04/07 13:07:07;;;;;;;6.65;2.35;;;17.40;54.90;;;;;;10495166;28;20624;-62
2021/04/07 13:12:09;;;;;;;10.35;2.40;;;17.40;55.10;;;;;;10495221;28;20035;-62
2021/04/07 13:17:10;;;;;;;10.15;2.65;;;17.30;55.20;;;;;;10471194;28;20067;-61
2021/04/07 13:22:11;;;;;;;13.65;3.28;;;17.30;55.50;;;;;;10497258;28;20043;-62
2021/04/07 13:27:13;;;;;;;8.02;1.98;;;17.30;55.50;;;;;;10497181;28;20039;-62
2021/04/07 13:32:19;;;;;;;11.73;2.53;;;17.30;55.50;;;;;;10496822;28;20024;-61
2021/04/07 13:37:33;;;;;;;11.80;1.98;;;17.30;55.50;;;;;;10497080;28;20088;-62
2021/04/07 13:42:51;;;;;;;6.35;1.85;;;17.40;55.40;;;;;;10496805;28;20039;-62
2021/04/07 13:47:56;;;;;;;5.25;1.55;;;17.40;55.60;;;;;;10497108;28;20178;-62
2021/04/07 13:52:59;;;;;;;9.02;1.80;;;17.30;55.50;;;;;;10476029;28;20391;-62
2021/04/07 13:57:59;;;;;;;5.10;1.42;;;17.40;55.80;;;;;;10486886;28;20028;-61
2021/04/07 14:03:01;;;;;;;4.57;1.17;;;17.40;56.00;;;;;;10504204;28;20029;-61
2021/04/07 14:08:03;;;;;;;6.43;1.60;;;17.40;56.20;;;;;;10504253;28;20036;-61
2021/04/07 14:13:07;;;;;;;7.45;1.48;;;17.30;56.00;;;;;;10485985;28;20021;-63
2021/04/07 14:18:09;;;;;;;6.47;1.75;;;17.30;56.40;;;;;;10503719;28;20032;-62
2021/04/07 14:23:11;;;;;;;9.20;2.58;;;17.30;56.60;;;;;;10503652;28;20047;-63
2021/04/07 14:28:13;;;;;;;11.38;1.90;;;17.20;56.70;;;;;;10503424;28;20418;-63
2021/04/07 14:33:16;;;;;;;11.40;2.13;;;17.20;56.90;;;;;;10503020;28;20041;-62
2021/04/07 14:38:20;;;;;;;10.35;2.17;;;17.10;57.60;;;;;;10503519;28;20036;-63
2021/04/07 14:43:21;;;;;;;7.65;1.98;;;17.10;57.50;;;;;;10485435;28;20039;-61
2021/04/07 14:48:23;;;;;;;17.48;2.78;;;17.10;58.20;;;;;;10474412;28;20050;-61
2021/04/07 14:53:24;;;;;;;11.93;2.00;;;17.10;58.00;;;;;;10501972;28;20020;-59
2021/04/07 14:58:25;;;;;;;15.20;1.60;;;17.10;58.40;;;;;;10501762;28;20545;-60
2021/04/07 15:03:25;;;;;;;6.57;1.83;;;17.10;58.30;;;;;;10500214;28;20092;-64
2021/04/07 15:08:26;;;;;;;17.27;3.17;;;17.10;58.50;;;;;;10478361;28;20087;-62
2021/04/07 15:13:27;;;;;;;12.95;2.00;;;17.10;58.60;;;;;;10501037;28;20030;-60
2021/04/07 15:18:28;;;;;;;12.50;2.97;;;17.10;58.80;;;;;;10501388;28;20028;-61
2021/04/07 15:23:30;;;;;;;12.38;2.70;;;17.10;58.80;;;;;;10501338;28;20481;-63
2021/04/07 15:28:38;;;;;;;17.02;2.58;;;17.10;59.00;;;;;;10482971;28;20039;-61
2021/04/07 15:33:41;;;;;;;14.57;2.63;;;17.00;58.60;;;;;;10497724;28;20048;-61
2021/04/07 15:38:47;;;;;;;19.05;2.72;;;17.00;59.10;;;;;;10498846;28;20043;-61
2021/04/07 15:43:48;;;;;;;18.70;2.60;;;17.00;58.80;;;;;;10481409;28;20384;-61
2021/04/07 15:48:50;;;;;;;14.52;2.17;;;17.00;59.30;;;;;;10499692;28;20033;-62
2021/04/07 15:53:51;;;;;;;12.98;2.83;;;17.00;59.30;;;;;;10469337;28;20048;-60
2021/04/07 15:58:52;;;;;;;12.38;2.28;;;17.00;58.90;;;;;;10481343;28;20047;-60
2021/04/07 16:03:52;;;;;;;16.20;2.70;;;17.10;58.90;;;;;;10482469;28;20492;-59
2021/04/07 16:08:53;;;;;;;23.50;2.97;;;17.10;59.20;;;;;;10500027;28;20071;-59
2021/04/07 16:13:54;;;;;;;13.15;3.83;;;17.10;59.60;;;;;;10499612;28;20037;-58
2021/04/07 16:18:55;;;;;;;10.48;2.72;;;17.10;58.90;;;;;;10499365;28;20107;-58
2021/04/07 16:23:55;;;;;;;17.95;3.13;;;17.20;60.70;;;;;;10499079;28;20116;-61
2021/04/07 16:28:56;;;;;;;15.50;2.97;;;17.30;60.90;;;;;;10498801;28;20096;-59
2021/04/07 16:33:57;;;;;;;11.25;2.15;;;17.30;60.90;;;;;;10498787;28;20494;-60
2021/04/07 16:38:57;;;;;;;11.05;2.95;;;17.30;60.70;;;;;;10498448;28;20508;-61
2021/04/07 16:43:58;;;;;;;11.43;2.55;;;17.30;60.20;;;;;;10498786;28;20488;-61
2021/04/07 16:48:59;;;;;;;12.02;2.15;;;17.30;61.20;;;;;;10511561;28;20519;-61
2021/04/07 16:54:00;;;;;;;14.80;2.28;;;17.30;61.60;;;;;;10498518;28;20557;-60
2021/04/07 16:59:00;;;;;;;24.50;3.03;;;17.30;61.00;;;;;;10496487;28;20119;-61
2021/04/07 17:04:01;;;;;;;13.05;2.50;;;17.20;61.00;;;;;;10495941;28;20024;-59
2021/04/07 17:09:02;;;;;;;11.23;2.67;;;17.10;61.30;;;;;;10495529;28;20537;-61
2021/04/07 17:14:03;;;;;;;7.30;1.75;;;17.10;60.20;;;;;;10474713;28;20028;-62
2021/04/07 17:19:04;;;;;;;7.25;1.95;;;17.10;59.90;;;;;;10465942;28;20035;-62
2021/04/07 17:24:08;;;;;;;8.25;1.67;;;17.20;59.60;;;;;;10477488;28;20505;-62
2021/04/07 17:29:09;;;;;;;7.10;1.42;;;17.20;59.30;;;;;;10476458;28;20459;-62
2021/04/07 17:34:10;;;;;;;5.05;1.17;;;17.20;59.20;;;;;;10495304;28;20134;-63
2021/04/07 17:39:10;;;;;;;5.63;1.65;;;17.20;59.00;;;;;;10494621;28;20056;-63
2021/04/07 17:44:11;;;;;;;8.80;1.70;;;17.20;58.80;;;;;;10493512;28;20479;-64
2021/04/07 17:49:12;;;;;;;6.18;1.98;;;17.30;58.80;;;;;;10492945;28;20048;-63
2021/04/07 17:54:12;;;;;;;5.53;1.38;;;17.30;59.00;;;;;;10475670;28;20024;-62
2021/04/07 17:59:15;;;;;;;4.75;1.60;;;17.30;59.20;;;;;;10493763;28;20062;-62
2021/04/07 18:04:15;;;;;;;6.43;1.13;;;17.30;59.30;;;;;;10493949;28;20074;-62
2021/04/07 18:09:16;;;;;;;7.93;1.60;;;17.30;59.60;;;;;;10492679;28;20488;-59
2021/04/07 18:14:17;;;;;;;7.47;1.27;;;17.30;59.60;;;;;;10493845;28;20024;-62
2021/04/07 18:19:18;;;;;;;7.00;1.83;;;17.30;59.40;;;;;;10493418;28;20033;-60
2021/04/07 18:24:18;;;;;;;9.15;1.17;;;17.30;59.40;;;;;;10492967;28;20029;-60
2021/04/07 18:29:20;;;;;;;5.65;2.03;;;17.30;59.30;;;;;;10475351;28;20025;-59
2021/04/07 18:34:21;;;;;;;7.40;1.52;;;17.30;59.00;;;;;;10492496;28;20044;-61
2021/04/07 18:39:21;;;;;;;10.63;1.77;;;17.30;59.20;;;;;;10478005;28;20614;-60
2021/04/07 18:44:22;;;;;;;14.00;2.38;;;17.30;59.10;;;;;;10482288;28;20388;-60
2021/04/07 18:49:23;;;;;;;6.63;1.90;;;17.30;59.00;;;;;;10502325;28;20028;-60
2021/04/07 18:54:23;;;;;;;9.52;1.98;;;17.30;58.80;;;;;;10502784;28;20060;-57
2021/04/07 18:59:24;;;;;;;8.43;1.77;;;17.30;58.70;;;;;;10500721;28;20036;-58
2021/04/07 19:04:25;;;;;;;7.00;0.80;;;17.20;58.50;;;;;;10515752;28;20032;-58
2021/04/07 19:09:26;;;;;;;14.40;1.52;;;17.20;58.40;;;;;;10501020;28;20028;-58
2021/04/07 19:14:27;;;;;;;4.85;1.00;;;17.30;58.40;;;;;;10501752;28;20036;-59
2021/04/07 19:19:27;;;;;;;5.13;0.98;;;17.20;58.20;;;;;;10501506;28;20032;-59
2021/04/07 19:24:28;;;;;;;6.68;1.02;;;17.30;58.10;;;;;;10501052;28;20036;-59
2021/04/07 19:29:29;;;;;;;4.18;1.08;;;17.30;57.90;;;;;;10500936;28;20038;-58
2021/04/07 19:34:30;;;;;;;7.30;1.17;;;17.30;57.80;;;;;;10501134;28;20496;-58
2021/04/07 19:39:31;;;;;;;3.63;1.40;;;17.30;57.60;;;;;;10483606;28;20020;-58
2021/04/07 19:44:31;;;;;;;5.20;1.35;;;17.40;57.60;;;;;;10478993;28;20044;-58
2021/04/07 19:49:41;;;;;;;2.38;0.55;;;17.40;57.30;;;;;;10488495;28;20029;-58
2021/04/07 19:54:42;;;;;;;3.55;1.40;;;17.40;57.20;;;;;;10500601;28;20036;-58
2021/04/07 19:59:44;;;;;;;1.83;0.57;;;17.50;57.00;;;;;;10500555;28;20035;-58
2021/04/07 20:04:46;;;;;;;2.78;0.80;;;17.60;56.90;;;;;;10500057;28;20495;-58
2021/04/07 20:09:47;;;;;;;9.52;1.33;;;17.60;56.90;;;;;;10500323;28;20536;-58
2021/04/07 20:14:47;;;;;;;2.33;0.82;;;17.60;56.80;;;;;;10499381;28;20128;-58
2021/04/07 20:19:48;;;;;;;3.97;1.13;;;17.60;56.80;;;;;;10500641;28;20111;-59
2021/04/07 20:24:49;;;;;;;3.42;0.93;;;17.50;56.60;;;;;;10498884;28;20185;-59
2021/04/07 20:29:50;;;;;;;2.08;0.68;;;17.50;56.60;;;;;;10499180;28;20060;-59
2021/04/07 20:34:51;;;;;;;3.75;0.70;;;17.50;56.60;;;;;;10498934;28;20057;-59
2021/04/07 20:39:51;;;;;;;3.72;0.70;;;17.50;56.50;;;;;;10498662;28;20039;-59
2021/04/07 20:44:52;;;;;;;3.05;0.82;;;17.50;56.50;;;;;;10498648;28;20050;-59
2021/04/07 20:49:53;;;;;;;1.95;0.75;;;17.50;56.40;;;;;;10480728;28;20107;-59
2021/04/07 20:54:54;;;;;;;1.50;0.80;;;17.50;56.40;;;;;;10479776;28;20461;-59
2021/04/07 20:59:55;;;;;;;3.70;1.00;;;17.50;56.40;;;;;;10498222;28;20036;-59
2021/04/07 21:04:55;;;;;;;2.75;0.60;;;17.50;56.40;;;;;;10496899;28;20119;-59
2021/04/07 21:10:00;;;;;;;3.60;0.80;;;17.50;56.30;;;;;;10479859;28;20099;-59
2021/04/07 21:15:02;;;;;;;2.58;0.60;;;17.50;56.20;;;;;;10497464;28;20111;-58
2021/04/07 21:20:09;;;;;;;1.75;0.77;;;17.50;56.10;;;;;;10497525;28;20502;-59
2021/04/07 21:25:11;;;;;;;1.58;0.50;;;17.60;56.10;;;;;;10496962;28;20048;-59
2021/04/07 21:30:12;;;;;;;2.53;0.32;;;17.60;56.00;;;;;;10497479;28;20025;-59
2021/04/07 21:35:13;;;;;;;1.63;0.50;;;17.60;55.90;;;;;;10496749;28;20044;-59
2021/04/07 21:40:14;;;;;;;1.80;0.55;;;17.60;55.90;;;;;;10497198;28;20372;-59
2021/04/07 21:45:15;;;;;;;3.17;1.05;;;17.60;55.80;;;;;;10496861;28;20031;-59
2021/04/07 21:50:16;;;;;;;1.42;0.52;;;17.60;55.70;;;;;;10496751;28;20112;-58
2021/04/07 21:55:17;;;;;;;0.80;0.47;;;17.60;55.70;;;;;;10476453;28;20054;-59
2021/04/07 22:00:19;;;;;;;1.00;0.43;;;17.60;55.70;;;;;;10496471;28;20116;-59
2021/04/07 22:05:21;;;;;;;3.97;0.60;;;17.70;55.50;;;;;;10496057;28;20083;-59
2021/04/07 22:10:30;;;;;;;1.30;0.45;;;17.70;55.50;;;;;;10495859;28;20028;-59
2021/04/07 22:15:38;;;;;;;1.30;0.47;;;17.70;55.50;;;;;;10501367;28;20033;-58
2021/04/07 22:20:39;;;;;;;1.50;0.50;;;17.60;55.40;;;;;;10504296;28;20040;-59
2021/04/07 22:25:40;;;;;;;0.98;0.50;;;17.70;55.40;;;;;;10503839;28;20033;-59
2021/04/07 22:36:01;;;;;;;0.90;0.35;;;17.60;55.30;;;;;;10503055;28;20048;-58
2021/04/07 22:41:02;;;;;;;1.77;0.65;;;17.60;55.30;;;;;;10517023;28;20036;-59
2021/04/07 22:46:04;;;;;;;2.95;0.40;;;17.60;55.30;;;;;;10503008;28;20381;-59
2021/04/07 22:51:05;;;;;;;0.70;0.40;;;17.60;55.20;;;;;;10503002;28;20385;-58
2021/04/07 22:56:07;;;;;;;1.45;0.40;;;17.60;55.20;;;;;;10479750;28;20032;-59
2021/04/07 23:01:08;;;;;;;1.35;0.43;;;17.60;55.10;;;;;;10502542;28;20029;-59
2021/04/07 23:06:10;;;;;;;0.60;0.30;;;17.60;55.10;;;;;;10502547;28;20033;-58
2021/04/07 23:11:10;;;;;;;1.20;0.50;;;17.70;55.00;;;;;;10502115;28;20032;-59
2021/04/07 23:16:11;;;;;;;0.93;0.30;;;17.60;54.90;;;;;;10501907;28;20503;-58
2021/04/07 23:21:12;;;;;;;1.98;0.57;;;17.60;54.90;;;;;;10484072;28;20037;-58
2021/04/07 23:26:13;;;;;;;1.15;0.40;;;17.70;54.90;;;;;;10500365;28;20397;-58
2021/04/07 23:31:13;;;;;;;1.17;0.60;;;17.60;54.90;;;;;;10501546;28;20463;-59
2021/04/07 23:36:14;;;;;;;0.60;0.40;;;17.60;54.90;;;;;;10500930;28;20085;-59
2021/04/07 23:41:16;;;;;;;1.70;0.35;;;17.70;54.90;;;;;;10501168;28;20028;-59
2021/04/07 23:46:16;;;;;;;1.00;0.45;;;17.70;54.80;;;;;;10500507;28;20033;-58
2021/04/07 23:51:17;;;;;;;0.45;0.40;;;17.60;54.70;;;;;;10475053;28;20082;-58
2021/04/07 23:56:18;;;;;;;0.95;0.40;;;17.60;54.70;;;;;;10500310;28;20107;-59
